Alexander, Iowa
Current Conditions -  °F | °C
As of 4:15 AM on Thursday 18 Dec 2014 (Local Time) from KCAV Reporting Station
Broken Clouds Broken Clouds  
Wind Chill:   Ceiling: 8000
Heat Index: 14°   Visibility: 10mi
Dew Point: 12°   Wind: 5mph
Humidity: 93%   Direction: 50°NE
Pressure: 30.26"   Gusts: NA
Location:  42.81°N, 93.48°W
Report Text: KCAV 181015Z AUTO 05004KT 10SM BKN080 M10/M11 A3026 RMK AO2
Loading
Personal Weather Stations






























Interactive Weather Map New forecast layout! Learn more

10-Day Weather Forecast

Advertisements
Track Severe Weather on mobile